Time;durP1;ratioP1;P1;durP2;ratioP2;P2;SDS_P1;SDS_P2;PMS_P1;PMS_P2;Temp;Humidity;BMP_temperature;BMP_pressure;BME280_temperature;BME280_humidity;BME280_pressure;Samples;Min_cycle;Max_cycle;Signal;HPM_P1;HPM_P2
2021/11/14 00:02:06;;;;;;;12.47;11.37;;;11.30;48.50;;;;;;10410685;28;20220;-72
2021/11/14 00:07:10;;;;;;;13.40;12.10;;;11.30;48.60;;;;;;10414216;28;20221;-72
2021/11/14 00:12:14;;;;;;;12.43;11.20;;;11.30;48.40;;;;;;10413088;28;20640;-72
2021/11/14 00:17:20;;;;;;;11.47;10.37;;;11.30;48.50;;;;;;10418934;28;20224;-72
2021/11/14 00:22:23;;;;;;;12.63;11.43;;;11.30;48.60;;;;;;10411770;28;20229;-72
2021/11/14 00:27:26;;;;;;;11.33;10.33;;;11.30;48.40;;;;;;10409056;28;20798;-72
2021/11/14 00:32:31;;;;;;;12.20;11.10;;;11.40;48.40;;;;;;10419581;28;20236;-72
2021/11/14 00:37:36;;;;;;;12.60;11.47;;;11.40;48.60;;;;;;10433418;28;20248;-72
2021/11/14 00:42:39;;;;;;;11.43;10.43;;;11.40;48.40;;;;;;10424560;28;21286;-72
2021/11/14 00:47:44;;;;;;;12.47;11.27;;;11.40;48.40;;;;;;10429567;28;20224;-72
2021/11/14 00:52:47;;;;;;;11.27;10.17;;;11.40;48.50;;;;;;10423648;28;20312;-72
2021/11/14 00:57:51;;;;;;;10.67;9.57;;;11.40;48.40;;;;;;10423855;28;20996;-72
2021/11/14 01:02:56;;;;;;;11.33;10.23;;;11.50;48.30;;;;;;10423856;28;20225;-72
2021/11/14 01:07:59;;;;;;;10.60;9.70;;;11.50;48.40;;;;;;10422400;28;20221;-72
2021/11/14 01:13:03;;;;;;;11.33;10.23;;;11.40;48.20;;;;;;10423535;28;20217;-72
2021/11/14 01:18:08;;;;;;;11.33;10.13;;;11.50;48.40;;;;;;10425065;28;20230;-72
2021/11/14 01:23:12;;;;;;;11.90;10.80;;;11.50;48.50;;;;;;10425881;28;20221;-72
2021/11/14 01:28:17;;;;;;;10.50;9.50;;;11.40;48.30;;;;;;10426876;28;20217;-72
2021/11/14 01:33:23;;;;;;;10.67;9.67;;;11.50;48.40;;;;;;10417350;28;20232;-71
2021/11/14 01:38:28;;;;;;;9.87;8.93;;;11.50;48.60;;;;;;10424441;28;20240;-71
2021/11/14 01:43:35;;;;;;;10.87;9.77;;;11.50;48.50;;;;;;10421957;28;20229;-71
2021/11/14 01:48:41;;;;;;;11.30;10.23;;;11.50;48.50;;;;;;10421835;28;20627;-69
2021/11/14 01:53:44;;;;;;;11.03;10.03;;;11.50;48.50;;;;;;10412058;28;20221;-72
2021/11/14 01:58:48;;;;;;;10.13;9.23;;;11.50;48.30;;;;;;10419980;28;20221;-70
2021/11/14 02:03:54;;;;;;;10.80;9.70;;;11.50;48.40;;;;;;10423729;28;20233;-72
2021/11/14 02:08:58;;;;;;;12.17;11.07;;;11.50;48.60;;;;;;10427439;28;20598;-72
2021/11/14 02:14:02;;;;;;;12.53;11.23;;;11.50;48.50;;;;;;10421502;28;20221;-72
2021/11/14 02:19:09;;;;;;;12.30;11.00;;;11.50;48.30;;;;;;10427200;28;20216;-72
2021/11/14 02:24:13;;;;;;;11.73;10.70;;;11.50;48.30;;;;;;10428184;28;20225;-72
2021/11/14 02:29:17;;;;;;;11.53;10.53;;;11.50;48.40;;;;;;10426372;28;20228;-72
2021/11/14 02:34:21;;;;;;;11.07;9.97;;;11.50;48.40;;;;;;10426632;28;20826;-72
2021/11/14 02:39:26;;;;;;;11.30;10.30;;;11.50;48.30;;;;;;10420648;28;20596;-68
2021/11/14 02:44:29;;;;;;;11.40;10.37;;;11.50;48.40;;;;;;10426769;28;20221;-68
2021/11/14 02:49:33;;;;;;;12.40;11.27;;;11.50;48.30;;;;;;10424147;28;20252;-71
2021/11/14 02:54:37;;;;;;;12.60;11.10;;;11.50;48.30;;;;;;10420232;28;20248;-72
2021/11/14 02:59:42;;;;;;;10.40;9.40;;;11.50;48.40;;;;;;10415274;28;20237;-72
2021/11/14 03:04:45;;;;;;;11.20;9.97;;;11.50;48.30;;;;;;10418122;28;20239;-68
2021/11/14 03:09:50;;;;;;;11.33;10.23;;;11.50;48.30;;;;;;10420433;28;20260;-72
2021/11/14 03:14:56;;;;;;;10.17;9.27;;;11.50;48.40;;;;;;10423516;28;20229;-72
2021/11/14 03:19:59;;;;;;;11.63;9.93;;;11.50;48.40;;;;;;10425830;28;20240;-69
2021/11/14 03:25:05;;;;;;;11.77;10.67;;;11.50;48.30;;;;;;10420003;28;20236;-69
2021/11/14 03:30:09;;;;;;;11.63;10.53;;;11.50;48.30;;;;;;10420006;28;20229;-72
2021/11/14 03:35:12;;;;;;;11.90;10.77;;;11.50;48.30;;;;;;10415667;28;20652;-72
2021/11/14 03:40:19;;;;;;;12.10;11.00;;;11.50;48.10;;;;;;10417770;28;20686;-71
2021/11/14 03:45:22;;;;;;;11.20;10.20;;;11.40;48.10;;;;;;10422844;28;20348;-72
2021/11/14 03:50:26;;;;;;;11.23;10.03;;;11.40;48.10;;;;;;10419281;28;20221;-69
2021/11/14 03:55:30;;;;;;;11.70;10.57;;;11.40;48.00;;;;;;10424662;28;20332;-72
2021/11/14 04:00:38;;;;;;;11.60;10.50;;;11.40;48.00;;;;;;10418324;28;20229;-72
2021/11/14 04:05:43;;;;;;;10.83;9.83;;;11.40;48.00;;;;;;10418587;28;20234;-68
2021/11/14 04:10:49;;;;;;;11.10;10.10;;;11.40;48.10;;;;;;10427841;28;20569;-72
2021/11/14 04:15:52;;;;;;;10.70;9.60;;;11.40;48.10;;;;;;10423521;28;20294;-71
2021/11/14 04:20:55;;;;;;;10.17;9.17;;;11.40;48.10;;;;;;10421281;28;20228;-68
2021/11/14 04:26:00;;;;;;;10.60;9.50;;;11.40;48.10;;;;;;10420713;28;20237;-68
2021/11/14 04:31:04;;;;;;;10.90;9.90;;;11.40;48.20;;;;;;10413353;28;20732;-72
2021/11/14 04:36:08;;;;;;;10.20;9.30;;;11.40;48.20;;;;;;10414086;28;20222;-72
2021/11/14 04:41:12;;;;;;;11.17;9.97;;;11.40;48.20;;;;;;10416694;28;20225;-72
2021/11/14 04:46:15;;;;;;;9.97;9.07;;;11.40;48.10;;;;;;10415060;28;20225;-69
2021/11/14 04:51:19;;;;;;;10.77;9.87;;;11.40;48.00;;;;;;10414530;28;20713;-69
2021/11/14 04:56:23;;;;;;;8.67;7.87;;;11.40;47.90;;;;;;10421702;28;20248;-72
2021/11/14 05:01:26;;;;;;;10.43;9.53;;;11.30;47.80;;;;;;10421534;28;20232;-72
2021/11/14 05:06:30;;;;;;;11.17;10.07;;;11.30;47.70;;;;;;10421462;28;20228;-72
2021/11/14 05:11:34;;;;;;;11.10;10.00;;;11.30;47.70;;;;;;10417739;28;20236;-68
2021/11/14 05:16:38;;;;;;;10.23;9.23;;;11.20;47.40;;;;;;10431637;28;20229;-69
2021/11/14 05:21:41;;;;;;;12.13;10.93;;;11.20;47.40;;;;;;10426533;28;20236;-72
2021/11/14 05:26:46;;;;;;;10.83;9.83;;;11.10;47.40;;;;;;10427021;28;20721;-71
2021/11/14 05:31:49;;;;;;;11.77;10.67;;;11.10;47.40;;;;;;10422236;28;20229;-71
2021/11/14 05:36:52;;;;;;;11.73;10.47;;;11.10;47.40;;;;;;10419310;28;20517;-71
2021/11/14 05:41:57;;;;;;;10.53;9.53;;;11.10;47.40;;;;;;10419018;28;20507;-71
2021/11/14 05:47:00;;;;;;;12.30;11.10;;;11.00;47.40;;;;;;10420891;28;20233;-72
2021/11/14 05:52:05;;;;;;;13.87;12.47;;;11.00;47.50;;;;;;10424856;28;20673;-72
2021/11/14 05:57:09;;;;;;;13.83;12.53;;;11.00;47.60;;;;;;10430582;28;20221;-72
2021/11/14 06:02:14;;;;;;;14.87;13.47;;;11.00;47.60;;;;;;10426346;28;20229;-72
2021/11/14 06:07:17;;;;;;;14.97;13.47;;;10.90;47.40;;;;;;10426694;28;20228;-72
2021/11/14 06:12:21;;;;;;;14.70;13.23;;;10.90;47.40;;;;;;10428478;28;20224;-68
2021/11/14 06:17:25;;;;;;;14.63;13.03;;;10.90;47.60;;;;;;10428332;28;20226;-72
2021/11/14 06:22:28;;;;;;;15.47;13.97;;;10.90;47.70;;;;;;10421757;28;20240;-72
2021/11/14 06:27:33;;;;;;;14.40;13.00;;;10.80;47.50;;;;;;10421520;28;20221;-72
2021/11/14 06:32:36;;;;;;;14.97;13.47;;;10.90;47.80;;;;;;10422383;28;20913;-72
2021/11/14 06:37:40;;;;;;;15.10;13.60;;;10.80;47.80;;;;;;10422452;28;20221;-72
2021/11/14 06:42:44;;;;;;;14.93;13.43;;;10.90;47.90;;;;;;10422407;28;20217;-72
2021/11/14 06:47:47;;;;;;;14.97;13.57;;;10.90;47.90;;;;;;10423808;28;20228;-72
2021/11/14 06:52:51;;;;;;;15.10;13.60;;;10.90;47.80;;;;;;10419434;28;20233;-72
2021/11/14 06:57:55;;;;;;;14.03;12.67;;;10.90;47.70;;;;;;10425154;28;20233;-69
2021/11/14 07:02:59;;;;;;;15.90;14.40;;;10.90;47.70;;;;;;10422371;28;20216;-72
2021/11/14 07:08:03;;;;;;;15.63;14.13;;;10.90;47.80;;;;;;10428047;28;20221;-72
2021/11/14 07:13:08;;;;;;;17.37;15.57;;;10.90;48.50;;;;;;10416858;28;20768;-71
2021/11/14 07:18:11;;;;;;;17.57;15.87;;;10.90;47.80;;;;;;10427942;28;20224;-69
2021/11/14 07:23:14;;;;;;;16.20;14.60;;;10.80;47.70;;;;;;10420800;28;20771;-69
2021/11/14 07:28:19;;;;;;;16.60;14.90;;;10.80;47.70;;;;;;10421497;28;20225;-72
2021/11/14 07:33:22;;;;;;;15.07;13.50;;;10.80;48.00;;;;;;10423474;28;20618;-68
2021/11/14 07:38:25;;;;;;;14.73;13.33;;;10.80;47.90;;;;;;10419927;28;20247;-68
2021/11/14 07:43:29;;;;;;;14.20;12.90;;;10.80;47.90;;;;;;10421610;28;21004;-72
2021/11/14 07:48:33;;;;;;;13.20;12.00;;;10.80;48.10;;;;;;10420723;28;20229;-69
2021/11/14 07:53:36;;;;;;;12.57;11.47;;;10.80;47.90;;;;;;10418709;28;20233;-69
2021/11/14 07:58:41;;;;;;;13.50;12.20;;;10.80;47.90;;;;;;10416545;28;20233;-73
2021/11/14 08:03:44;;;;;;;13.63;12.27;;;10.80;47.90;;;;;;10421188;28;20236;-69
2021/11/14 08:08:47;;;;;;;12.83;11.70;;;10.80;47.90;;;;;;10422563;28;20229;-71
2021/11/14 08:13:52;;;;;;;12.93;11.73;;;10.80;47.90;;;;;;10438229;28;20235;-71
2021/11/14 08:18:55;;;;;;;12.60;11.50;;;10.80;47.90;;;;;;10431332;28;20233;-71
2021/11/14 08:23:58;;;;;;;12.70;11.60;;;10.80;47.90;;;;;;10421038;28;20220;-68
2021/11/14 08:29:03;;;;;;;12.87;11.70;;;10.80;47.90;;;;;;10418851;28;20231;-71
2021/11/14 08:34:10;;;;;;;12.83;11.63;;;10.80;48.10;;;;;;10418215;28;20771;-72
2021/11/14 08:39:14;;;;;;;12.37;11.27;;;10.70;47.90;;;;;;10410238;28;20221;-72
2021/11/14 08:44:18;;;;;;;12.47;11.37;;;10.70;47.90;;;;;;10414476;28;20224;-72
2021/11/14 08:49:22;;;;;;;12.40;11.30;;;10.80;48.00;;;;;;10413314;28;20740;-68
2021/11/14 08:54:26;;;;;;;11.90;10.80;;;10.80;48.30;;;;;;10410402;28;21008;-68
2021/11/14 08:59:31;;;;;;;12.17;10.97;;;10.80;48.00;;;;;;10419053;28;20233;-68
2021/11/14 09:04:34;;;;;;;12.97;11.77;;;10.80;48.30;;;;;;10420931;28;20241;-68
2021/11/14 09:09:38;;;;;;;13.13;11.83;;;10.80;48.20;;;;;;10418747;28;20240;-68
2021/11/14 09:14:42;;;;;;;12.17;11.07;;;10.80;48.20;;;;;;10422818;28;20229;-72
2021/11/14 09:19:47;;;;;;;13.50;12.20;;;10.80;48.30;;;;;;10429140;28;20224;-68
2021/11/14 09:24:50;;;;;;;13.00;11.70;;;10.80;48.10;;;;;;10431957;28;20232;-71
2021/11/14 09:29:54;;;;;;;13.37;12.07;;;10.80;48.10;;;;;;10429154;28;20774;-68
2021/11/14 09:34:58;;;;;;;12.80;11.53;;;10.80;48.30;;;;;;10425721;28;20271;-71
2021/11/14 09:40:01;;;;;;;13.17;11.87;;;10.80;48.30;;;;;;10437468;28;20247;-72
2021/11/14 09:45:08;;;;;;;12.80;11.60;;;10.80;48.30;;;;;;10426308;28;20221;-71
2021/11/14 09:50:12;;;;;;;14.20;12.80;;;10.90;48.50;;;;;;10427951;28;20244;-71
2021/11/14 09:55:15;;;;;;;14.30;12.90;;;10.90;48.40;;;;;;10424096;28;20229;-72
2021/11/14 10:00:25;;;;;;;13.83;12.43;;;10.90;48.30;;;;;;10422666;28;20722;-72
2021/11/14 10:05:28;;;;;;;14.00;12.67;;;11.00;48.60;;;;;;10420439;28;20230;-71
2021/11/14 10:10:36;;;;;;;13.47;12.17;;;11.00;48.40;;;;;;10426978;28;20225;-70
2021/11/14 10:15:52;;;;;;;14.07;12.67;;;11.00;48.40;;;;;;10432400;28;20252;-71
2021/11/14 10:20:58;;;;;;;14.50;13.10;;;11.10;48.50;;;;;;10426833;28;20360;-72
2021/11/14 10:26:06;;;;;;;14.17;12.77;;;11.10;48.30;;;;;;10427073;28;20228;-69
2021/11/14 10:31:12;;;;;;;14.43;13.07;;;11.10;48.60;;;;;;10426890;28;20225;-71
2021/11/14 10:36:16;;;;;;;14.33;12.83;;;11.10;48.60;;;;;;10427289;28;20637;-71
2021/11/14 10:41:19;;;;;;;14.80;13.33;;;11.10;48.50;;;;;;10429734;28;20228;-71
2021/11/14 10:46:25;;;;;;;13.30;12.00;;;11.10;48.60;;;;;;10429697;28;20229;-68
2021/11/14 10:51:29;;;;;;;13.70;12.30;;;11.20;49.60;;;;;;10428314;28;20222;-69
2021/11/14 10:56:32;;;;;;;12.93;11.53;;;11.20;48.90;;;;;;10424733;28;20234;-69
2021/11/14 11:01:37;;;;;;;11.97;10.73;;;11.30;49.00;;;;;;10435849;28;20240;-72
2021/11/14 11:06:41;;;;;;;12.80;11.57;;;11.40;49.10;;;;;;10434014;28;20229;-69
2021/11/14 11:11:45;;;;;;;11.97;10.87;;;11.40;49.00;;;;;;10423309;28;20216;-73
2021/11/14 11:16:50;;;;;;;12.83;11.57;;;11.50;49.40;;;;;;10421973;28;20233;-73
2021/11/14 11:21:53;;;;;;;12.30;11.10;;;11.60;49.40;;;;;;10424508;28;20227;-73
2021/11/14 11:26:59;;;;;;;12.30;11.10;;;11.60;49.20;;;;;;10423916;28;20827;-69
2021/11/14 11:32:05;;;;;;;10.67;9.57;;;11.70;49.40;;;;;;10414354;28;20228;-72
2021/11/14 11:37:10;;;;;;;11.30;10.20;;;11.80;49.50;;;;;;10422430;23;20232;-70
2021/11/14 11:42:13;;;;;;;11.83;10.63;;;11.80;49.40;;;;;;10464400;28;20307;-70
2021/11/14 11:47:38;;;;;;;11.67;10.47;;;11.90;49.20;;;;;;10461261;28;20277;-70
2021/11/14 11:52:43;;;;;;;10.93;9.80;;;12.00;49.30;;;;;;10459268;28;20230;-70
2021/11/14 11:57:47;;;;;;;11.00;9.97;;;12.10;49.20;;;;;;10461592;28;20236;-70
2021/11/14 12:02:51;;;;;;;10.40;9.43;;;12.10;49.20;;;;;;10458144;28;20648;-70
2021/11/14 12:07:56;;;;;;;10.20;9.27;;;12.20;49.10;;;;;;10460894;28;20323;-73
2021/11/14 12:13:04;;;;;;;18.77;16.70;;;12.20;49.10;;;;;;10458945;28;20227;-71
2021/11/14 12:18:11;;;;;;;11.53;10.33;;;12.30;49.20;;;;;;10463568;28;20225;-74
2021/11/14 12:23:23;;;;;;;9.70;8.80;;;12.30;49.20;;;;;;10465125;28;20217;-71
2021/11/14 12:28:29;;;;;;;9.83;9.03;;;12.30;49.10;;;;;;10463212;28;20224;-71
2021/11/14 12:33:38;;;;;;;9.23;8.33;;;12.40;49.10;;;;;;10461995;28;20228;-71
2021/11/14 12:38:42;;;;;;;8.30;7.60;;;12.40;49.10;;;;;;10463371;28;20232;-71
2021/11/14 12:43:48;;;;;;;7.97;7.27;;;12.40;49.00;;;;;;10455855;28;20243;-72
2021/11/14 12:48:53;;;;;;;8.23;7.43;;;12.50;48.80;;;;;;10463558;28;20228;-70
2021/11/14 12:53:59;;;;;;;8.23;7.43;;;12.50;48.80;;;;;;10459692;28;20227;-71
2021/11/14 12:59:16;;;;;;;13.07;9.40;;;12.50;48.90;;;;;;10461748;28;20228;-72
2021/11/14 13:04:27;;;;;;;8.50;7.73;;;12.50;48.60;;;;;;10457194;28;20319;-75
2021/11/14 13:09:32;;;;;;;9.00;8.10;;;12.50;48.50;;;;;;10453652;28;20234;-71
2021/11/14 13:14:37;;;;;;;8.30;7.50;;;12.50;48.60;;;;;;10463196;28;20216;-70
2021/11/14 13:19:42;;;;;;;8.50;7.70;;;12.50;48.60;;;;;;10462457;28;20540;-73
2021/11/14 13:24:55;;;;;;;7.57;6.87;;;12.50;48.70;;;;;;10465593;28;20878;-73
2021/11/14 13:29:59;;;;;;;8.27;7.57;;;12.50;48.70;;;;;;10454988;28;20224;-73
2021/11/14 13:35:04;;;;;;;7.80;7.10;;;12.50;48.70;;;;;;10438851;28;20292;-72
2021/11/14 13:40:11;;;;;;;7.80;7.10;;;12.50;48.80;;;;;;10467159;28;20548;-73
2021/11/14 13:45:17;;;;;;;7.97;7.27;;;12.60;48.80;;;;;;10465503;28;20231;-71
2021/11/14 13:50:30;;;;;;;8.27;7.27;;;12.60;48.80;;;;;;10465035;28;20225;-73
2021/11/14 13:55:38;;;;;;;7.83;7.17;;;12.60;48.90;;;;;;10461791;28;20224;-73
2021/11/14 14:00:44;;;;;;;7.60;6.90;;;12.60;48.90;;;;;;10467891;28;20318;-76
2021/11/14 14:05:49;;;;;;;7.90;7.20;;;12.60;49.60;;;;;;10470478;28;20699;-71
2021/11/14 14:10:53;;;;;;;8.30;7.50;;;12.70;49.00;;;;;;10474144;28;20229;-76
2021/11/14 14:15:57;;;;;;;8.20;7.43;;;12.70;48.90;;;;;;10471612;28;20251;-74
2021/11/14 14:21:04;;;;;;;8.47;7.67;;;12.70;49.00;;;;;;10466106;28;20735;-74
2021/11/14 14:26:18;;;;;;;8.90;8.10;;;12.70;49.10;;;;;;10471430;28;20315;-71
2021/11/14 14:31:24;;;;;;;7.73;6.90;;;12.80;49.20;;;;;;10469980;28;20322;-71
2021/11/14 14:36:31;;;;;;;8.37;7.60;;;12.80;49.80;;;;;;10430401;28;20239;-75
2021/11/14 14:41:34;;;;;;;8.17;7.47;;;12.90;49.60;;;;;;10467245;28;20726;-76
2021/11/14 14:46:39;;;;;;;8.13;7.43;;;12.90;49.40;;;;;;10466699;28;20703;-72
2021/11/14 14:51:48;;;;;;;8.37;7.67;;;13.00;49.30;;;;;;10465404;28;20216;-76
2021/11/14 14:56:53;;;;;;;7.80;7.17;;;13.00;49.20;;;;;;10457805;28;20696;-72
2021/11/14 15:01:58;;;;;;;7.47;6.87;;;13.00;49.10;;;;;;10464623;28;20790;-73
2021/11/14 15:07:08;;;;;;;7.50;6.90;;;13.10;49.10;;;;;;10461299;28;20236;-73
2021/11/14 15:12:13;;;;;;;7.13;6.53;;;13.10;49.10;;;;;;10459668;28;20224;-73
2021/11/14 15:17:19;;;;;;;6.50;5.90;;;13.10;49.10;;;;;;10458851;28;20232;-73
2021/11/14 15:22:26;;;;;;;8.50;7.00;;;13.10;49.10;;;;;;10464299;28;20314;-73
2021/11/14 15:27:29;;;;;;;7.90;7.20;;;13.10;49.00;;;;;;10462046;28;20225;-73
2021/11/14 15:32:32;;;;;;;8.70;7.90;;;13.10;48.80;;;;;;10463851;28;20259;-73
2021/11/14 15:37:37;;;;;;;8.87;8.07;;;13.10;48.60;;;;;;10463850;28;20220;-73
2021/11/14 15:42:41;;;;;;;10.20;8.97;;;13.10;48.60;;;;;;10459541;28;20228;-73
2021/11/14 15:47:45;;;;;;;10.70;9.60;;;13.10;48.60;;;;;;10459450;28;20228;-74
2021/11/14 15:52:50;;;;;;;10.53;9.53;;;13.00;48.50;;;;;;10458089;28;20244;-73
2021/11/14 15:57:56;;;;;;;10.53;9.53;;;13.00;48.50;;;;;;10459249;28;20323;-73
2021/11/14 16:02:59;;;;;;;10.57;9.50;;;12.90;48.40;;;;;;10461052;28;20225;-73
2021/11/14 16:08:05;;;;;;;10.77;9.67;;;12.90;48.40;;;;;;10466316;28;20229;-73
2021/11/14 16:13:09;;;;;;;11.63;10.07;;;12.90;48.40;;;;;;10460926;28;20316;-73
2021/11/14 16:18:12;;;;;;;12.00;10.80;;;12.90;48.40;;;;;;10455836;28;20231;-73
2021/11/14 16:23:19;;;;;;;12.27;11.00;;;12.80;48.20;;;;;;10451656;28;20347;-72
2021/11/14 16:28:22;;;;;;;14.23;11.23;;;12.80;48.20;;;;;;10461652;28;20325;-73
2021/11/14 16:33:26;;;;;;;12.77;11.47;;;12.80;48.20;;;;;;10457902;28;20226;-72
2021/11/14 16:38:30;;;;;;;13.00;11.67;;;12.70;48.10;;;;;;10460518;28;20331;-72
2021/11/14 16:43:33;;;;;;;11.77;10.57;;;12.70;48.00;;;;;;10455377;28;20591;-72
2021/11/14 16:48:37;;;;;;;13.27;11.90;;;12.60;48.00;;;;;;10460626;28;20228;-73
2021/11/14 16:53:42;;;;;;;14.10;12.63;;;12.60;48.80;;;;;;10462121;28;20226;-73
2021/11/14 16:58:46;;;;;;;13.73;11.70;;;12.60;47.90;;;;;;10464252;28;20768;-73
2021/11/14 17:03:49;;;;;;;12.57;11.27;;;12.50;47.90;;;;;;10456618;28;20217;-72
2021/11/14 17:08:53;;;;;;;12.47;11.17;;;12.60;48.00;;;;;;10458847;28;20236;-72
2021/11/14 17:14:00;;;;;;;12.50;11.23;;;12.50;47.70;;;;;;10472792;28;20563;-72
2021/11/14 17:19:04;;;;;;;12.93;11.10;;;12.50;47.80;;;;;;10473749;28;20229;-73
2021/11/14 17:24:09;;;;;;;11.80;10.63;;;12.40;47.70;;;;;;10471156;28;20745;-76
2021/11/14 17:29:12;;;;;;;11.47;10.27;;;12.40;47.60;;;;;;10469485;28;20693;-75
2021/11/14 17:34:17;;;;;;;13.70;11.47;;;12.40;47.70;;;;;;10470137;28;20721;-76
2021/11/14 17:39:22;;;;;;;11.53;10.33;;;12.40;47.60;;;;;;10470304;28;20714;-76
2021/11/14 17:44:25;;;;;;;11.63;10.43;;;12.40;47.50;;;;;;10471604;28;20594;-76
2021/11/14 17:49:29;;;;;;;12.00;10.80;;;12.30;47.50;;;;;;10465185;28;20233;-75
2021/11/14 17:54:36;;;;;;;12.87;11.50;;;12.30;47.40;;;;;;10467952;28;20229;-76
2021/11/14 17:59:39;;;;;;;13.43;10.97;;;12.30;47.10;;;;;;10470933;28;20713;-76
2021/11/14 18:04:42;;;;;;;13.40;11.10;;;12.30;47.20;;;;;;10469840;28;20224;-76
2021/11/14 18:09:49;;;;;;;11.83;10.63;;;12.30;47.30;;;;;;10469765;28;20224;-75
2021/11/14 18:14:53;;;;;;;12.40;11.07;;;12.30;47.00;;;;;;10463283;28;20228;-75
2021/11/14 18:20:00;;;;;;;18.80;16.90;;;12.20;47.00;;;;;;10467097;28;20236;-75
2021/11/14 18:25:06;;;;;;;13.43;11.97;;;12.20;47.10;;;;;;10467802;28;20257;-75
2021/11/14 18:30:13;;;;;;;12.90;11.60;;;12.10;46.90;;;;;;10468474;28;20228;-76
2021/11/14 18:35:17;;;;;;;12.70;11.40;;;12.10;47.00;;;;;;10462288;28;20339;-75
2021/11/14 18:40:22;;;;;;;13.40;12.00;;;12.00;47.00;;;;;;10471383;28;20242;-76
2021/11/14 18:45:26;;;;;;;13.90;12.10;;;12.00;46.90;;;;;;10468130;28;20283;-75
2021/11/14 18:50:32;;;;;;;13.13;11.73;;;11.80;46.80;;;;;;10469055;28;20228;-75
2021/11/14 18:55:39;;;;;;;14.40;12.90;;;11.90;46.90;;;;;;10469622;28;20220;-72
2021/11/14 19:00:43;;;;;;;14.87;11.77;;;11.90;46.90;;;;;;10463910;28;20847;-72
2021/11/14 19:05:48;;;;;;;14.47;12.20;;;11.80;47.00;;;;;;10463111;28;20814;-72
2021/11/14 19:10:52;;;;;;;13.67;12.27;;;11.80;46.90;;;;;;10471588;28;20228;-72
2021/11/14 19:16:00;;;;;;;14.63;13.13;;;11.80;46.90;;;;;;10470606;28;20248;-72
2021/11/14 19:21:03;;;;;;;14.03;12.57;;;11.70;46.80;;;;;;10469342;28;20225;-72
2021/11/14 19:26:09;;;;;;;14.13;12.27;;;11.70;46.80;;;;;;10471028;28;20576;-72
2021/11/14 19:31:16;;;;;;;13.80;12.33;;;11.70;46.80;;;;;;10466463;28;20737;-72
2021/11/14 19:36:20;;;;;;;15.17;12.90;;;11.60;46.80;;;;;;10460772;28;21835;-72
2021/11/14 19:41:24;;;;;;;15.20;12.90;;;11.60;46.90;;;;;;10464710;28;20238;-72
2021/11/14 19:46:28;;;;;;;15.73;13.00;;;11.60;46.90;;;;;;10464689;28;20236;-72
2021/11/14 19:51:31;;;;;;;14.67;12.77;;;11.60;47.10;;;;;;10466492;28;20220;-72
2021/11/14 19:56:36;;;;;;;14.63;12.63;;;11.50;47.00;;;;;;10464641;28;20367;-72
2021/11/14 20:01:39;;;;;;;14.67;13.03;;;11.50;47.10;;;;;;10466617;28;20629;-72
2021/11/14 20:06:45;;;;;;;13.97;12.47;;;11.50;47.20;;;;;;10466051;28;20282;-72
2021/11/14 20:11:51;;;;;;;14.43;12.47;;;11.50;47.00;;;;;;10464556;28;20585;-72
2021/11/14 20:16:54;;;;;;;15.37;12.80;;;11.50;46.90;;;;;;10467409;28;20252;-72
2021/11/14 20:21:57;;;;;;;14.03;12.07;;;11.50;47.00;;;;;;10459379;28;20584;-72
2021/11/14 20:27:04;;;;;;;14.00;12.53;;;11.50;47.10;;;;;;10462604;28;20226;-72
2021/11/14 20:32:08;;;;;;;14.37;12.97;;;11.50;47.10;;;;;;10464956;28;20959;-72
2021/11/14 20:37:11;;;;;;;14.60;12.90;;;11.50;47.20;;;;;;10462969;28;20220;-72
2021/11/14 20:42:16;;;;;;;16.43;11.97;;;11.50;47.10;;;;;;10467194;28;20592;-72
2021/11/14 20:47:19;;;;;;;14.30;12.67;;;11.50;47.00;;;;;;10473459;28;20238;-72
2021/11/14 20:52:24;;;;;;;14.37;12.53;;;11.60;47.20;;;;;;10471386;28;20232;-72
2021/11/14 20:57:29;;;;;;;14.17;12.67;;;11.60;47.10;;;;;;10476616;28;20232;-72
2021/11/14 21:02:32;;;;;;;15.07;13.43;;;11.60;46.90;;;;;;10465336;28;20232;-72
2021/11/14 21:07:36;;;;;;;14.83;13.10;;;11.60;46.90;;;;;;10463991;28;20231;-72
2021/11/14 21:12:41;;;;;;;14.53;13.03;;;11.50;46.70;;;;;;10470703;28;20313;-72
2021/11/14 21:17:45;;;;;;;15.50;13.80;;;11.50;46.60;;;;;;10468323;28;20367;-72
2021/11/14 21:22:49;;;;;;;15.87;14.17;;;11.50;46.60;;;;;;10470954;28;20230;-72
2021/11/14 21:27:54;;;;;;;17.17;14.87;;;11.50;46.50;;;;;;10467369;28;20216;-72
2021/11/14 21:33:00;;;;;;;16.63;13.90;;;11.50;46.40;;;;;;10468880;28;20235;-72
2021/11/14 21:38:12;;;;;;;16.60;14.90;;;11.40;46.50;;;;;;10466409;28;20235;-73
2021/11/14 21:43:19;;;;;;;16.63;14.93;;;11.40;46.50;;;;;;10465205;28;20727;-72
2021/11/14 21:48:23;;;;;;;16.00;14.40;;;11.40;46.10;;;;;;10471786;28;20598;-72
2021/11/14 21:53:26;;;;;;;15.37;13.87;;;11.40;46.30;;;;;;10455678;28;20225;-72
2021/11/14 21:58:31;;;;;;;17.10;14.33;;;11.40;46.20;;;;;;10462584;28;20217;-72
2021/11/14 22:03:34;;;;;;;14.83;13.30;;;11.30;46.00;;;;;;10459326;28;20232;-72
2021/11/14 22:08:41;;;;;;;15.40;13.80;;;11.30;46.20;;;;;;10457770;28;20712;-72
2021/11/14 22:13:45;;;;;;;14.87;13.30;;;11.30;46.20;;;;;;10461569;28;20230;-72
2021/11/14 22:18:49;;;;;;;14.50;13.07;;;11.20;46.00;;;;;;10453248;28;20229;-72
2021/11/14 22:23:52;;;;;;;14.57;13.07;;;11.20;46.10;;;;;;10455431;28;20735;-72
2021/11/14 22:28:56;;;;;;;14.17;12.73;;;11.20;45.90;;;;;;10453975;28;20545;-72
2021/11/14 22:33:59;;;;;;;15.23;13.63;;;11.20;45.80;;;;;;10450548;28;20236;-71
2021/11/14 22:39:03;;;;;;;14.93;12.67;;;11.10;46.00;;;;;;10454903;28;20223;-73
2021/11/14 22:44:09;;;;;;;13.83;12.43;;;11.10;46.10;;;;;;10454328;28;20220;-72
2021/11/14 22:49:12;;;;;;;14.27;12.83;;;11.10;46.00;;;;;;10453427;28;20654;-72
2021/11/14 22:54:15;;;;;;;15.73;13.83;;;11.10;46.00;;;;;;10453347;28;20228;-72
2021/11/14 22:59:21;;;;;;;16.00;14.30;;;11.20;45.90;;;;;;10454598;28;20233;-72
2021/11/14 23:04:24;;;;;;;15.47;13.80;;;11.10;45.50;;;;;;10453623;28;20232;-72
2021/11/14 23:09:27;;;;;;;15.73;14.03;;;11.10;45.70;;;;;;10459890;28;20237;-72
2021/11/14 23:14:32;;;;;;;16.00;14.30;;;11.10;45.70;;;;;;10458976;28;20597;-72
2021/11/14 23:19:35;;;;;;;16.27;14.57;;;11.10;45.70;;;;;;10458304;28;20240;-72
2021/11/14 23:24:38;;;;;;;15.20;13.60;;;11.10;45.70;;;;;;10457870;28;20228;-72
2021/11/14 23:29:43;;;;;;;15.30;13.70;;;11.10;45.70;;;;;;10456125;28;20582;-72
2021/11/14 23:34:47;;;;;;;18.50;15.47;;;11.10;45.50;;;;;;10460078;28;20335;-72
2021/11/14 23:39:55;;;;;;;16.33;14.40;;;11.10;45.50;;;;;;10458101;28;20220;-72
2021/11/14 23:45:00;;;;;;;17.87;15.97;;;11.10;45.50;;;;;;10458608;28;20221;-72
2021/11/14 23:50:07;;;;;;;15.50;13.90;;;11.10;45.30;;;;;;10453799;28;20221;-72
2021/11/14 23:55:11;;;;;;;16.87;15.13;;;11.10;45.40;;;;;;10463598;28;20233;-72
